Archival Weather

Pemba

Pemba, Mozambique (FQPB)

Report from: Saturday, April 1, 2023 5:00 PM CAT
Current time: Monday, July 22, 2024 12:28 PM CAT

Current weather – Weather history – Daily summaries
Weather forecast

Temperature28.0°C (82.4°F)
Heat index32.7°C (90.9°F)
Dew point25.0°C (77.0°F)
Winds 5 kts (2.6 m/s, 5.8 mph) Vrb
Winds variableWinds variable from Southeast (140°) to South-Southwest (200°)
Visibility6.2 mi. (10 km)
Clouds Ceiling: Broken clouds 0 ft. (0 m)
Scattered clouds 2,000 ft. (610 m)
Few clouds with cumulonimbus 2,500 ft. (762 m)
Altimeter29.88 in.Hg (1012 mB)
Relative humidity84 %
Density altitude1,961 ft. (598 m)
Remarks Cumulonimbus clouds observed
Flight conditions Low Instrument Meteorological Conditions
Raw dataFQPB 011500Z 17005KT 140V200 9999 SCT020 FEW025CB BKN/// 28/25 Q1012 RMK CB TO W/NW/N
An error has occurred. This application may no longer respond until reloaded. Reload 🗙